Time;durP1;ratioP1;P1;durP2;ratioP2;P2;SDS_P1;SDS_P2;PMS_P1;PMS_P2;Temp;Humidity;BMP_temperature;BMP_pressure;BME280_temperature;BME280_humidity;BME280_pressure;Samples;Min_cycle;Max_cycle;Signal;HPM_P1;HPM_P2
2023/06/12 00:01:01;;;;;;;11.13;5.18;;;;;;;;;;4983594;28;20050;-74
2023/06/12 00:03:27;;;;;;;10.80;4.85;;;;;;;;;;4966936;28;20043;-75
2023/06/12 00:05:58;;;;;;;10.85;5.10;;;;;;;;;;4968283;28;20034;-75
2023/06/12 00:08:24;;;;;;;9.83;5.03;;;;;;;;;;4967225;28;20024;-75
2023/06/12 00:10:50;;;;;;;13.00;5.20;;;;;;;;;;4983457;28;20337;-75
2023/06/12 00:13:16;;;;;;;9.25;4.78;;;;;;;;;;4966288;28;20019;-75
2023/06/12 00:15:42;;;;;;;10.02;4.60;;;;;;;;;;4966421;28;20031;-74
2023/06/12 00:18:08;;;;;;;10.18;5.50;;;;;;;;;;4968106;28;20054;-75
2023/06/12 00:20:34;;;;;;;9.88;4.80;;;;;;;;;;4981955;28;20094;-75
2023/06/12 00:23:01;;;;;;;9.30;4.70;;;;;;;;;;4981248;28;20099;-74
2023/06/12 00:25:27;;;;;;;7.00;4.03;;;;;;;;;;4966640;28;20035;-75
2023/06/12 00:27:55;;;;;;;7.22;4.47;;;;;;;;;;4982431;28;20024;-74
2023/06/12 00:30:21;;;;;;;7.47;4.50;;;;;;;;;;4964798;29;20043;-75
2023/06/12 00:32:47;;;;;;;9.88;4.63;;;;;;;;;;4964958;28;20055;-75
2023/06/12 00:35:18;;;;;;;7.50;4.85;;;;;;;;;;4980466;28;20050;-74
2023/06/12 00:37:44;;;;;;;7.18;4.50;;;;;;;;;;4982881;28;20477;-75
2023/06/12 00:40:13;;;;;;;6.35;4.60;;;;;;;;;;4965509;29;20042;-77
2023/06/12 00:42:45;;;;;;;5.95;4.38;;;;;;;;;;4964279;28;20035;-74
2023/06/12 00:45:11;;;;;;;7.20;4.28;;;;;;;;;;4981279;28;20019;-75
2023/06/12 00:47:37;;;;;;;6.80;4.88;;;;;;;;;;4968583;28;20027;-74
2023/06/12 00:50:04;;;;;;;9.05;5.10;;;;;;;;;;4965206;29;20055;-76
2023/06/12 00:52:34;;;;;;;5.82;4.72;;;;;;;;;;4966594;28;20031;-76
2023/06/12 00:55:01;;;;;;;7.00;4.57;;;;;;;;;;4966034;28;20015;-74
2023/06/12 00:57:27;;;;;;;7.78;4.75;;;;;;;;;;4981141;28;20034;-74
2023/06/12 00:59:54;;;;;;;8.55;4.82;;;;;;;;;;4981273;28;20034;-75
2023/06/12 01:02:21;;;;;;;7.50;4.22;;;;;;;;;;4981973;28;20023;-75
2023/06/12 01:04:49;;;;;;;8.85;4.90;;;;;;;;;;4981767;28;20028;-74
2023/06/12 01:07:20;;;;;;;6.07;4.32;;;;;;;;;;4979308;28;20024;-74
2023/06/12 01:09:57;;;;;;;13.10;5.00;;;;;;;;;;4965462;28;20039;-76
2023/06/12 01:12:23;;;;;;;7.35;4.10;;;;;;;;;;4980354;28;20042;-75
2023/06/12 01:14:49;;;;;;;8.65;4.80;;;;;;;;;;4967977;28;20028;-76
2023/06/12 01:17:18;;;;;;;8.05;4.70;;;;;;;;;;4984443;28;20023;-77
2023/06/12 01:19:44;;;;;;;6.43;4.38;;;;;;;;;;4969571;28;20015;-74
2023/06/12 01:22:12;;;;;;;8.07;4.55;;;;;;;;;;4983798;28;20046;-73
2023/06/12 01:24:38;;;;;;;10.45;5.07;;;;;;;;;;4984522;28;20043;-76
2023/06/12 01:27:07;;;;;;;6.70;4.35;;;;;;;;;;4969659;28;20035;-74
2023/06/12 01:29:33;;;;;;;6.60;4.95;;;;;;;;;;4967653;29;20044;-75
2023/06/12 01:32:01;;;;;;;6.07;4.35;;;;;;;;;;4984903;28;20044;-76
2023/06/12 01:34:37;;;;;;;7.07;4.97;;;;;;;;;;4982858;28;20031;-75
2023/06/12 01:37:13;;;;;;;7.85;4.70;;;;;;;;;;4966078;28;20050;-74
2023/06/12 01:39:40;;;;;;;7.63;4.72;;;;;;;;;;4983162;28;20091;-76
2023/06/12 01:42:07;;;;;;;8.18;4.63;;;;;;;;;;4983821;28;20067;-75
2023/06/12 01:44:33;;;;;;;5.80;4.53;;;;;;;;;;4983596;28;20019;-75
2023/06/12 01:47:01;;;;;;;6.57;4.65;;;;;;;;;;4984326;28;20086;-77
2023/06/12 01:49:27;;;;;;;9.18;5.13;;;;;;;;;;4967997;28;20011;-75
2023/06/12 01:51:53;;;;;;;8.18;4.80;;;;;;;;;;4983474;28;20070;-76
2023/06/12 01:54:22;;;;;;;8.30;5.28;;;;;;;;;;4969542;28;20030;-75
2023/06/12 01:56:51;;;;;;;6.00;4.35;;;;;;;;;;4968653;29;20040;-74
2023/06/12 01:59:18;;;;;;;9.13;4.50;;;;;;;;;;4969022;28;20023;-76
2023/06/12 02:01:44;;;;;;;6.80;4.63;;;;;;;;;;4985296;28;20054;-76
2023/06/12 02:04:11;;;;;;;6.45;4.80;;;;;;;;;;4984009;28;20035;-77
2023/06/12 02:06:37;;;;;;;5.25;4.30;;;;;;;;;;4973159;28;20023;-75
2023/06/12 02:09:05;;;;;;;8.75;4.90;;;;;;;;;;4983121;28;20025;-76
2023/06/12 02:11:33;;;;;;;8.10;5.10;;;;;;;;;;4966682;28;20044;-74
2023/06/12 02:14:02;;;;;;;7.38;4.18;;;;;;;;;;4967846;28;20031;-76
2023/06/12 02:16:28;;;;;;;8.73;4.95;;;;;;;;;;4968222;28;20050;-76
2023/06/12 02:18:54;;;;;;;8.82;5.13;;;;;;;;;;4985384;28;20043;-75
2023/06/12 02:21:20;;;;;;;6.95;4.70;;;;;;;;;;4985357;28;20032;-76
2023/06/12 02:23:46;;;;;;;9.07;4.75;;;;;;;;;;4969345;28;20027;-75
2023/06/12 02:26:14;;;;;;;7.13;4.35;;;;;;;;;;4972139;28;20150;-77
2023/06/12 02:28:42;;;;;;;6.55;4.18;;;;;;;;;;4982412;28;20088;-74
2023/06/12 02:31:08;;;;;;;9.55;4.80;;;;;;;;;;4969028;28;20054;-74
2023/06/12 02:33:34;;;;;;;7.50;4.88;;;;;;;;;;4968175;28;20027;-74
2023/06/12 02:36:00;;;;;;;8.55;4.72;;;;;;;;;;4969112;29;20024;-75
2023/06/12 02:38:27;;;;;;;6.78;4.93;;;;;;;;;;4983607;28;20039;-75
2023/06/12 02:40:53;;;;;;;7.82;4.53;;;;;;;;;;4983495;28;20058;-76
2023/06/12 02:43:19;;;;;;;9.68;5.45;;;;;;;;;;4984863;28;20031;-78
2023/06/12 02:45:45;;;;;;;9.88;4.85;;;;;;;;;;4982530;28;20038;-75
2023/06/12 02:48:11;;;;;;;10.43;5.32;;;;;;;;;;4969022;28;20016;-75
2023/06/12 02:50:37;;;;;;;9.93;5.10;;;;;;;;;;4967692;28;21540;-75
2023/06/12 02:53:03;;;;;;;6.80;4.80;;;;;;;;;;4969090;28;20015;-77
2023/06/12 02:55:31;;;;;;;7.95;4.95;;;;;;;;;;4983162;28;20027;-75
2023/06/12 02:57:57;;;;;;;7.15;4.43;;;;;;;;;;4972117;28;20094;-75
2023/06/12 03:00:23;;;;;;;10.43;5.28;;;;;;;;;;4982669;28;20043;-75
2023/06/12 03:02:55;;;;;;;6.43;4.60;;;;;;;;;;4967332;28;20034;-76
2023/06/12 03:05:25;;;;;;;8.57;5.80;;;;;;;;;;4983296;28;20019;-76
2023/06/12 03:07:52;;;;;;;7.88;5.00;;;;;;;;;;4969214;29;20317;-77
2023/06/12 03:10:18;;;;;;;11.68;5.10;;;;;;;;;;4983160;28;20047;-74
2023/06/12 03:12:47;;;;;;;8.90;4.97;;;;;;;;;;4968229;28;20051;-76
2023/06/12 03:15:16;;;;;;;5.78;4.90;;;;;;;;;;4968102;28;20015;-77
2023/06/12 03:17:42;;;;;;;6.45;5.15;;;;;;;;;;4983209;28;20031;-76
2023/06/12 03:20:09;;;;;;;9.55;5.18;;;;;;;;;;4967854;28;20039;-74
2023/06/12 03:22:38;;;;;;;10.00;4.90;;;;;;;;;;4968862;28;20063;-77
2023/06/12 03:25:05;;;;;;;7.78;5.35;;;;;;;;;;4972503;28;20023;-75
2023/06/12 03:27:31;;;;;;;7.03;5.00;;;;;;;;;;4983501;28;20023;-76
2023/06/12 03:29:57;;;;;;;6.97;5.20;;;;;;;;;;4984596;28;20236;-75
2023/06/12 03:32:23;;;;;;;7.38;5.28;;;;;;;;;;4967833;28;20035;-77
2023/06/12 03:34:49;;;;;;;9.98;5.25;;;;;;;;;;4984856;28;20053;-77
2023/06/12 03:37:15;;;;;;;6.43;5.47;;;;;;;;;;4985672;28;20039;-74
2023/06/12 03:39:41;;;;;;;8.65;5.50;;;;;;;;;;4967721;28;20042;-76
2023/06/12 03:42:07;;;;;;;7.88;4.38;;;;;;;;;;4984509;28;20032;-75
2023/06/12 03:44:33;;;;;;;9.40;5.15;;;;;;;;;;4967282;28;20030;-75
2023/06/12 03:46:59;;;;;;;9.05;4.90;;;;;;;;;;4983817;28;20028;-75
2023/06/12 03:49:26;;;;;;;13.05;5.50;;;;;;;;;;4985544;28;20099;-75
2023/06/12 03:51:52;;;;;;;10.20;5.18;;;;;;;;;;4967905;28;20043;-76
2023/06/12 03:54:18;;;;;;;10.07;5.70;;;;;;;;;;4969090;29;20286;-75
2023/06/12 03:56:48;;;;;;;9.40;5.95;;;;;;;;;;4984321;28;20097;-75
2023/06/12 03:59:15;;;;;;;9.85;5.47;;;;;;;;;;4969081;28;20050;-76
2023/06/12 04:01:42;;;;;;;7.53;5.18;;;;;;;;;;4982886;28;20023;-76
2023/06/12 04:04:11;;;;;;;7.68;5.45;;;;;;;;;;4968434;28;20042;-76
2023/06/12 04:06:40;;;;;;;8.82;5.25;;;;;;;;;;4969738;28;20157;-76
2023/06/12 04:09:12;;;;;;;10.82;5.43;;;;;;;;;;4971054;28;20078;-76
2023/06/12 04:11:38;;;;;;;15.45;6.00;;;;;;;;;;4984620;28;20063;-75
2023/06/12 04:14:05;;;;;;;8.55;5.25;;;;;;;;;;4985870;28;20043;-75
2023/06/12 04:16:32;;;;;;;5.40;4.53;;;;;;;;;;4971686;29;20039;-75
2023/06/12 04:19:03;;;;;;;11.57;5.95;;;;;;;;;;4971669;28;20051;-75
2023/06/12 04:21:30;;;;;;;9.02;5.07;;;;;;;;;;4968848;28;20023;-74
2023/06/12 04:23:57;;;;;;;9.88;5.70;;;;;;;;;;4981740;28;20147;-77
2023/06/12 04:26:24;;;;;;;9.60;5.63;;;;;;;;;;4982125;28;20015;-75
2023/06/12 04:28:50;;;;;;;10.73;5.82;;;;;;;;;;4983040;28;20019;-75
2023/06/12 04:31:16;;;;;;;11.50;6.05;;;;;;;;;;4984522;28;20055;-76
2023/06/12 04:33:42;;;;;;;10.13;5.75;;;;;;;;;;4984453;28;20047;-75
2023/06/12 04:36:17;;;;;;;11.77;5.85;;;;;;;;;;4980881;28;20055;-75
2023/06/12 04:38:43;;;;;;;9.77;5.55;;;;;;;;;;4982995;28;20027;-75
2023/06/12 04:41:12;;;;;;;10.35;6.45;;;;;;;;;;4983536;28;20042;-75
2023/06/12 04:43:38;;;;;;;10.10;5.85;;;;;;;;;;4983389;28;20043;-76
2023/06/12 04:46:07;;;;;;;9.23;5.90;;;;;;;;;;4967646;28;20050;-75
2023/06/12 04:48:33;;;;;;;11.02;6.57;;;;;;;;;;4981430;28;20314;-75
2023/06/12 04:50:59;;;;;;;8.20;5.90;;;;;;;;;;4970275;28;20027;-75
2023/06/12 04:53:29;;;;;;;10.60;6.18;;;;;;;;;;4981925;28;20055;-75
2023/06/12 04:55:56;;;;;;;8.57;6.38;;;;;;;;;;4965997;28;20202;-75
2023/06/12 04:58:22;;;;;;;11.82;7.80;;;;;;;;;;4983243;28;20050;-75
2023/06/12 05:00:48;;;;;;;11.75;8.52;;;;;;;;;;4970501;28;20699;-75
2023/06/12 05:03:17;;;;;;;12.48;6.65;;;;;;;;;;4980794;28;20099;-75
2023/06/12 05:05:47;;;;;;;11.68;6.93;;;;;;;;;;4979975;28;20054;-75
2023/06/12 05:08:16;;;;;;;13.93;6.68;;;;;;;;;;4964353;28;20095;-76
2023/06/12 05:10:46;;;;;;;13.73;8.55;;;;;;;;;;4980597;28;20038;-76
2023/06/12 05:13:12;;;;;;;12.43;8.25;;;;;;;;;;4982869;28;20019;-75
2023/06/12 05:15:38;;;;;;;10.57;7.30;;;;;;;;;;4982347;28;20027;-76
2023/06/12 05:18:06;;;;;;;10.75;7.63;;;;;;;;;;4980402;28;20040;-76
2023/06/12 05:20:32;;;;;;;12.15;7.30;;;;;;;;;;4980951;28;20028;-76
2023/06/12 05:22:57;;;;;;;9.27;7.40;;;;;;;;;;4962806;28;20594;-75
2023/06/12 05:25:23;;;;;;;11.88;7.60;;;;;;;;;;4981116;28;20054;-76
2023/06/12 05:27:49;;;;;;;16.60;6.70;;;;;;;;;;4949000;29;20035;-78
2023/06/12 05:30:16;;;;;;;13.88;8.43;;;;;;;;;;4970497;28;20043;-80
2023/06/12 05:32:42;;;;;;;14.77;7.53;;;;;;;;;;4988581;28;20071;-82
2023/06/12 05:35:08;;;;;;;12.27;8.45;;;;;;;;;;4988904;28;20040;-80
2023/06/12 05:37:40;;;;;;;14.85;9.80;;;;;;;;;;4975866;28;20023;-81
2023/06/12 05:40:12;;;;;;;;;;;;;;;;;;4973033;28;20102;-80
2023/06/12 05:42:41;;;;;;;9.32;6.85;;;;;;;;;;4986938;28;19945;-80
2023/06/12 05:45:13;;;;;;;10.35;7.45;;;;;;;;;;4988556;28;20040;-80
2023/06/12 05:47:42;;;;;;;13.10;6.85;;;;;;;;;;4977577;28;20043;-80
2023/06/12 05:50:12;;;;;;;11.98;6.47;;;;;;;;;;4993778;28;20027;-81
2023/06/12 05:52:38;;;;;;;23.90;6.00;;;;;;;;;;4977059;28;20124;-81
2023/06/12 05:55:05;;;;;;;12.38;5.72;;;;;;;;;;4987284;28;20012;-81
2023/06/12 05:57:36;;;;;;;10.10;5.85;;;;;;;;;;4991547;28;20103;-81
2023/06/12 06:00:04;;;;;;;6.68;5.10;;;;;;;;;;4986196;28;20030;-80
2023/06/12 06:02:31;;;;;;;10.55;5.63;;;;;;;;;;4979935;28;20015;-80
2023/06/12 06:04:57;;;;;;;10.30;5.80;;;;;;;;;;4978644;28;20038;-81
2023/06/12 06:10:02;;;;;;;9.98;5.22;;;;;;;;;;5182013;23;20044;-79
2023/06/12 06:12:28;;;;;;;9.63;5.13;;;;;;;;;;4996811;28;20023;-79
2023/06/12 06:14:54;;;;;;;8.95;5.63;;;;;;;;;;4995450;28;20035;-79
2023/06/12 06:17:20;;;;;;;9.13;4.80;;;;;;;;;;4995952;28;20030;-79
2023/06/12 06:19:46;;;;;;;7.97;5.53;;;;;;;;;;4997299;28;20034;-79
2023/06/12 06:22:14;;;;;;;8.80;5.53;;;;;;;;;;5014889;28;20022;-79
2023/06/12 06:24:41;;;;;;;8.82;4.82;;;;;;;;;;4997014;28;20030;-79
2023/06/12 06:27:08;;;;;;;9.65;5.30;;;;;;;;;;4998084;28;20029;-79
2023/06/12 06:29:34;;;;;;;11.98;5.38;;;;;;;;;;4998422;28;20018;-79
2023/06/12 06:32:00;;;;;;;8.50;4.45;;;;;;;;;;4995938;28;20043;-79
2023/06/12 06:34:27;;;;;;;8.38;5.13;;;;;;;;;;5011889;28;20037;-79
2023/06/12 06:36:53;;;;;;;7.35;4.78;;;;;;;;;;4990069;28;20028;-79
2023/06/12 06:39:19;;;;;;;9.27;4.72;;;;;;;;;;5007070;28;20061;-79
2023/06/12 06:41:47;;;;;;;8.10;5.13;;;;;;;;;;4991913;28;20046;-79
2023/06/12 06:44:13;;;;;;;8.15;5.18;;;;;;;;;;4995051;28;20094;-79
2023/06/12 06:46:42;;;;;;;11.43;5.25;;;;;;;;;;5010993;28;20022;-79
2023/06/12 06:49:08;;;;;;;9.68;5.07;;;;;;;;;;5012842;28;20032;-79
2023/06/12 06:51:35;;;;;;;10.18;4.55;;;;;;;;;;4992994;28;20444;-79
2023/06/12 06:54:01;;;;;;;9.05;4.60;;;;;;;;;;5010126;28;20022;-79
2023/06/12 06:56:30;;;;;;;8.45;5.22;;;;;;;;;;4996912;28;20026;-79
2023/06/12 06:58:56;;;;;;;8.50;4.72;;;;;;;;;;5011536;28;20030;-79
2023/06/12 07:01:22;;;;;;;9.48;5.53;;;;;;;;;;5011760;28;20014;-79
2023/06/12 07:03:48;;;;;;;7.85;4.70;;;;;;;;;;5011928;28;20026;-79
2023/06/12 07:06:14;;;;;;;7.85;5.07;;;;;;;;;;4993375;28;20022;-78
2023/06/12 07:08:40;;;;;;;8.63;5.03;;;;;;;;;;5009164;28;20074;-79
2023/06/12 07:11:06;;;;;;;8.38;5.13;;;;;;;;;;4994298;28;20043;-79
2023/06/12 07:13:35;;;;;;;9.07;5.43;;;;;;;;;;5009031;28;20099;-78
2023/06/12 07:16:01;;;;;;;6.70;4.82;;;;;;;;;;4996093;28;20014;-79
2023/06/12 07:18:27;;;;;;;9.55;4.53;;;;;;;;;;4992561;28;20036;-79
2023/06/12 07:20:53;;;;;;;10.27;5.18;;;;;;;;;;4995964;28;20433;-79
2023/06/12 07:23:19;;;;;;;12.68;4.65;;;;;;;;;;4997757;28;20023;-79
2023/06/12 07:25:45;;;;;;;8.77;5.78;;;;;;;;;;4997020;28;21153;-79
2023/06/12 07:28:11;;;;;;;10.00;4.95;;;;;;;;;;4997071;28;20106;-80
2023/06/12 07:30:37;;;;;;;7.32;4.97;;;;;;;;;;4998261;28;20046;-79
2023/06/12 07:33:03;;;;;;;6.22;4.88;;;;;;;;;;4995596;28;20213;-80
2023/06/12 07:35:29;;;;;;;9.85;4.38;;;;;;;;;;4999420;28;20113;-80
2023/06/12 07:37:55;;;;;;;13.35;5.47;;;;;;;;;;4991360;28;20057;-80
2023/06/12 07:40:21;;;;;;;6.07;4.03;;;;;;;;;;4997111;28;20039;-80
2023/06/12 07:42:48;;;;;;;6.45;4.78;;;;;;;;;;4989667;28;20030;-84
2023/06/12 07:45:14;;;;;;;8.02;4.60;;;;;;;;;;5000870;28;20026;-90
2023/06/12 07:47:40;;;;;;;8.30;4.43;;;;;;;;;;4980883;28;20026;-91
2023/06/12 07:50:06;;;;;;;7.93;4.70;;;;;;;;;;4981796;28;20177;-87
2023/06/12 07:52:33;;;;;;;8.40;4.55;;;;;;;;;;4994483;28;20034;-90
2023/06/12 07:54:58;;;;;;;6.05;4.20;;;;;;;;;;4974972;28;20018;-87
2023/06/12 07:57:24;;;;;;;5.82;4.32;;;;;;;;;;4973130;28;20030;-90
2023/06/12 07:59:51;;;;;;;5.85;4.45;;;;;;;;;;4979544;28;20021;-90
2023/06/12 08:02:17;;;;;;;15.27;4.53;;;;;;;;;;4987520;28;20037;-91
2023/06/12 08:04:45;;;;;;;8.45;4.28;;;;;;;;;;4975413;28;20118;-90
2023/06/12 08:07:13;;;;;;;11.05;5.13;;;;;;;;;;4972172;28;20027;-89
2023/06/12 08:09:41;;;;;;;9.18;4.90;;;;;;;;;;4969229;28;20062;-90
2023/06/12 08:12:10;;;;;;;6.93;4.63;;;;;;;;;;4967278;28;20060;-91
2023/06/12 08:14:36;;;;;;;4.93;4.32;;;;;;;;;;4975245;28;20466;-90
2023/06/12 08:17:08;;;;;;;10.57;4.55;;;;;;;;;;4977418;28;20019;-92
2023/06/12 08:19:34;;;;;;;6.97;4.00;;;;;;;;;;4970370;28;20037;-90
2023/06/12 08:22:01;;;;;;;6.65;4.57;;;;;;;;;;4980075;28;20047;-91
2023/06/12 08:24:30;;;;;;;5.50;4.00;;;;;;;;;;4968656;28;20358;-90
2023/06/12 08:26:57;;;;;;;9.18;4.57;;;;;;;;;;4970986;28;20119;-91
2023/06/12 08:29:23;;;;;;;11.32;5.07;;;;;;;;;;4973461;28;20041;-90
2023/06/12 08:31:49;;;;;;;5.28;4.30;;;;;;;;;;4977073;28;20026;-92
2023/06/12 08:34:15;;;;;;;6.13;4.55;;;;;;;;;;4975218;28;20030;-89
2023/06/12 08:36:41;;;;;;;7.07;4.63;;;;;;;;;;4974651;28;20043;-91
2023/06/12 08:39:08;;;;;;;9.20;4.28;;;;;;;;;;4978980;28;20034;-92
2023/06/12 08:41:35;;;;;;;5.82;4.63;;;;;;;;;;4973179;28;20026;-90
2023/06/12 08:44:02;;;;;;;12.68;5.45;;;;;;;;;;4970935;28;20026;-91
2023/06/12 08:46:31;;;;;;;9.00;4.60;;;;;;;;;;4970045;28;20054;-92
2023/06/12 08:49:00;;;;;;;6.97;4.28;;;;;;;;;;4971194;28;20668;-92
2023/06/12 08:51:27;;;;;;;5.53;4.63;;;;;;;;;;4969747;28;21348;-89
2023/06/12 08:53:56;;;;;;;9.50;4.63;;;;;;;;;;4972264;28;20085;-91
2023/06/12 08:56:22;;;;;;;6.13;4.00;;;;;;;;;;4974501;28;20030;-90
2023/06/12 08:58:48;;;;;;;6.32;4.45;;;;;;;;;;4970952;28;20066;-91
2023/06/12 09:01:15;;;;;;;7.25;4.60;;;;;;;;;;4976608;28;20035;-90
2023/06/12 09:03:43;;;;;;;5.55;4.72;;;;;;;;;;4972903;28;20452;-90
2023/06/12 09:06:11;;;;;;;5.45;4.60;;;;;;;;;;4990152;28;20035;-91
2023/06/12 09:08:39;;;;;;;6.85;4.40;;;;;;;;;;4973082;28;20129;-91
2023/06/12 09:11:05;;;;;;;6.68;3.88;;;;;;;;;;4973490;28;20026;-91
2023/06/12 09:13:43;;;;;;;5.43;4.65;;;;;;;;;;4971410;28;20037;-86
2023/06/12 09:16:12;;;;;;;7.38;4.82;;;;;;;;;;4986800;28;20026;-91
2023/06/12 09:18:51;;;;;;;6.05;4.13;;;;;;;;;;4972817;28;20090;-89
2023/06/12 09:21:17;;;;;;;7.93;4.50;;;;;;;;;;4985407;28;20041;-93
2023/06/12 09:23:45;;;;;;;7.18;4.50;;;;;;;;;;4968261;28;20030;-91
2023/06/12 09:26:15;;;;;;;8.05;4.45;;;;;;;;;;4970319;28;20027;-90
2023/06/12 09:28:44;;;;;;;7.65;4.75;;;;;;;;;;4969795;28;20073;-90
2023/06/12 09:31:14;;;;;;;10.88;4.30;;;;;;;;;;4973663;28;20103;-89
2023/06/12 09:33:40;;;;;;;6.75;4.57;;;;;;;;;;4989231;28;20018;-91
2023/06/12 09:36:07;;;;;;;6.25;4.20;;;;;;;;;;4977587;28;20030;-90
2023/06/12 09:38:36;;;;;;;7.60;3.83;;;;;;;;;;4990133;28;20881;-90
2023/06/12 09:41:03;;;;;;;7.70;4.30;;;;;;;;;;4971370;28;20066;-90
2023/06/12 09:43:30;;;;;;;6.53;3.83;;;;;;;;;;4975676;28;20031;-91
2023/06/12 09:46:01;;;;;;;10.48;4.43;;;;;;;;;;4971160;28;20233;-90
2023/06/12 09:48:41;;;;;;;5.60;3.83;;;;;;;;;;4991082;28;20030;-90
2023/06/12 09:51:10;;;;;;;7.30;4.00;;;;;;;;;;4990759;28;20458;-90
2023/06/12 09:53:37;;;;;;;12.63;4.70;;;;;;;;;;4972710;28;20161;-91
2023/06/12 09:56:07;;;;;;;9.10;3.88;;;;;;;;;;4972681;28;20042;-91
2023/06/12 09:58:37;;;;;;;7.05;4.38;;;;;;;;;;4979509;28;20041;-89
2023/06/12 10:01:05;;;;;;;5.80;3.90;;;;;;;;;;4991640;28;20034;-90
2023/06/12 10:03:35;;;;;;;6.18;4.03;;;;;;;;;;4972516;28;20030;-90
2023/06/12 10:06:05;;;;;;;9.18;4.25;;;;;;;;;;4978354;28;20106;-89
2023/06/12 10:08:31;;;;;;;7.55;4.85;;;;;;;;;;4976018;28;20030;-90
2023/06/12 10:10:57;;;;;;;5.60;3.85;;;;;;;;;;4978938;28;20110;-90
2023/06/12 10:13:25;;;;;;;4.82;4.32;;;;;;;;;;4976255;28;20050;-89
2023/06/12 10:15:51;;;;;;;7.82;4.07;;;;;;;;;;4973828;28;20034;-87
2023/06/12 10:18:18;;;;;;;7.22;4.13;;;;;;;;;;4989660;28;20149;-89
2023/06/12 10:20:45;;;;;;;5.28;4.20;;;;;;;;;;4976781;28;20030;-91
2023/06/12 10:23:11;;;;;;;4.47;3.65;;;;;;;;;;4979118;28;20031;-91
2023/06/12 10:25:37;;;;;;;10.30;4.60;;;;;;;;;;4975449;28;20069;-90
2023/06/12 10:28:04;;;;;;;10.15;4.47;;;;;;;;;;4994223;28;20423;-90
2023/06/12 10:30:30;;;;;;;9.85;3.78;;;;;;;;;;4973894;28;20042;-89
2023/06/12 10:33:08;;;;;;;4.50;4.00;;;;;;;;;;4972390;28;20173;-90
2023/06/12 10:35:34;;;;;;;6.53;3.97;;;;;;;;;;4976327;28;20031;-87
2023/06/12 10:38:00;;;;;;;4.40;4.00;;;;;;;;;;4974210;28;20035;-88
2023/06/12 10:40:30;;;;;;;9.93;3.63;;;;;;;;;;4971336;28;20125;-90
2023/06/12 10:43:04;;;;;;;4.95;3.63;;;;;;;;;;4974209;28;20040;-91
2023/06/12 10:45:31;;;;;;;7.50;4.07;;;;;;;;;;4970679;28;20045;-89
2023/06/12 10:48:06;;;;;;;9.38;4.32;;;;;;;;;;4974564;28;20044;-89
2023/06/12 10:50:43;;;;;;;4.82;3.90;;;;;;;;;;4989961;28;20027;-91
2023/06/12 10:53:13;;;;;;;7.38;4.20;;;;;;;;;;4968220;28;20038;-91
2023/06/12 10:55:40;;;;;;;5.22;3.90;;;;;;;;;;4981541;28;20037;-90
2023/06/12 10:58:26;;;;;;;6.85;5.13;;;;;;;;;;4982833;28;20027;-91
2023/06/12 11:00:56;;;;;;;7.38;4.13;;;;;;;;;;4978044;28;20030;-88
2023/06/12 11:03:25;;;;;;;9.23;4.82;;;;;;;;;;4970831;28;20026;-90
2023/06/12 11:05:54;;;;;;;6.63;4.60;;;;;;;;;;4974081;28;20030;-90
2023/06/12 11:08:23;;;;;;;4.22;3.83;;;;;;;;;;4977564;28;20053;-88
2023/06/12 11:10:49;;;;;;;6.45;4.30;;;;;;;;;;4973980;28;20105;-90
2023/06/12 11:13:15;;;;;;;5.78;4.28;;;;;;;;;;4988680;28;20023;-90
2023/06/12 11:15:42;;;;;;;8.75;5.05;;;;;;;;;;4976484;28;20022;-88
2023/06/12 11:18:09;;;;;;;5.80;4.03;;;;;;;;;;4987421;28;20475;-91
2023/06/12 11:20:35;;;;;;;6.20;4.35;;;;;;;;;;4988997;28;20450;-87
2023/06/12 11:23:02;;;;;;;6.10;3.63;;;;;;;;;;4967441;28;20037;-90
2023/06/12 11:25:32;;;;;;;5.47;3.83;;;;;;;;;;4994156;28;20026;-90
2023/06/12 11:27:58;;;;;;;7.20;4.13;;;;;;;;;;4975184;28;20034;-89
2023/06/12 11:30:24;;;;;;;4.35;3.90;;;;;;;;;;4977152;28;20459;-87
2023/06/12 11:32:50;;;;;;;7.68;4.15;;;;;;;;;;4988637;28;20042;-89
2023/06/12 11:35:16;;;;;;;4.05;3.65;;;;;;;;;;4971298;28;20117;-90
2023/06/12 11:37:43;;;;;;;5.13;4.40;;;;;;;;;;4973955;28;20050;-89
2023/06/12 11:40:11;;;;;;;5.47;4.10;;;;;;;;;;4973978;28;20015;-89
2023/06/12 11:42:43;;;;;;;6.13;3.90;;;;;;;;;;4988327;28;20030;-89
2023/06/12 11:45:10;;;;;;;5.93;3.90;;;;;;;;;;4968618;28;20065;-87
2023/06/12 11:47:43;;;;;;;6.43;4.65;;;;;;;;;;4969461;28;20077;-87
2023/06/12 11:50:10;;;;;;;4.63;4.20;;;;;;;;;;4970235;28;20022;-88
2023/06/12 11:52:41;;;;;;;7.72;3.95;;;;;;;;;;4971207;28;20049;-90
2023/06/12 11:55:17;;;;;;;4.60;4.13;;;;;;;;;;4968006;28;20026;-89
2023/06/12 11:57:48;;;;;;;5.38;4.50;;;;;;;;;;4966967;28;20110;-88
2023/06/12 12:00:14;;;;;;;4.63;3.63;;;;;;;;;;4992219;28;20022;-90
2023/06/12 12:02:41;;;;;;;6.60;4.30;;;;;;;;;;4972977;28;20518;-89
2023/06/12 12:05:11;;;;;;;8.57;4.47;;;;;;;;;;4967381;28;20119;-87
2023/06/12 12:07:38;;;;;;;9.70;4.95;;;;;;;;;;4975518;28;20047;-88
2023/06/12 12:10:11;;;;;;;4.32;3.70;;;;;;;;;;4989524;28;20027;-89
2023/06/12 12:12:45;;;;;;;7.28;4.03;;;;;;;;;;4973982;28;20134;-89
2023/06/12 12:15:12;;;;;;;5.03;4.28;;;;;;;;;;4998384;28;20037;-87
2023/06/12 12:17:38;;;;;;;7.32;3.70;;;;;;;;;;4978245;28;20026;-88
2023/06/12 12:20:07;;;;;;;6.03;4.85;;;;;;;;;;4970863;28;20102;-90
2023/06/12 12:22:37;;;;;;;5.82;4.15;;;;;;;;;;4974192;28;20041;-89
2023/06/12 12:25:06;;;;;;;5.28;3.85;;;;;;;;;;4969789;28;20109;-89
2023/06/12 12:27:33;;;;;;;5.70;3.75;;;;;;;;;;4996057;28;20044;-88
2023/06/12 12:30:03;;;;;;;5.68;4.20;;;;;;;;;;4986614;28;20093;-86
2023/06/12 12:32:29;;;;;;;12.88;4.25;;;;;;;;;;4968537;28;20031;-88
2023/06/12 12:35:03;;;;;;;11.27;4.32;;;;;;;;;;4978600;28;20469;-88
2023/06/12 12:37:29;;;;;;;6.15;4.38;;;;;;;;;;4977218;28;20030;-90
2023/06/12 12:39:55;;;;;;;4.15;3.75;;;;;;;;;;4973703;28;20026;-90
2023/06/12 12:42:25;;;;;;;6.72;4.40;;;;;;;;;;4973366;28;20030;-88
2023/06/12 12:44:51;;;;;;;5.35;4.40;;;;;;;;;;4977999;28;20199;-91
2023/06/12 12:47:20;;;;;;;8.27;4.32;;;;;;;;;;4987641;28;20041;-90
2023/06/12 12:49:46;;;;;;;7.85;4.60;;;;;;;;;;4971915;28;20018;-91
2023/06/12 12:52:14;;;;;;;5.97;4.15;;;;;;;;;;4971720;28;20042;-89
2023/06/12 12:54:40;;;;;;;4.10;3.70;;;;;;;;;;4973956;28;20335;-91
2023/06/12 12:57:07;;;;;;;4.82;4.35;;;;;;;;;;4967473;28;20026;-87
2023/06/12 12:59:33;;;;;;;8.43;4.20;;;;;;;;;;4975562;28;20050;-88
2023/06/12 13:01:59;;;;;;;10.52;4.95;;;;;;;;;;4967841;28;20081;-89
2023/06/12 13:04:25;;;;;;;5.72;4.32;;;;;;;;;;4970248;28;20089;-91
2023/06/12 13:06:52;;;;;;;6.82;4.32;;;;;;;;;;4974230;28;20085;-90
2023/06/12 13:09:20;;;;;;;6.70;4.38;;;;;;;;;;4972855;28;20116;-90
2023/06/12 13:11:46;;;;;;;5.85;4.38;;;;;;;;;;4996569;28;20647;-90
2023/06/12 13:14:12;;;;;;;6.47;4.60;;;;;;;;;;4976959;28;20054;-90
2023/06/12 13:16:38;;;;;;;6.55;4.85;;;;;;;;;;4974172;28;21784;-89
2023/06/12 13:19:04;;;;;;;10.27;3.88;;;;;;;;;;4994804;28;20065;-88
2023/06/12 13:21:30;;;;;;;5.18;4.55;;;;;;;;;;4971622;28;20034;-91
2023/06/12 13:23:56;;;;;;;6.13;4.70;;;;;;;;;;4992865;28;20038;-88
2023/06/12 13:26:23;;;;;;;5.38;4.60;;;;;;;;;;4976479;28;20022;-90
2023/06/12 13:28:49;;;;;;;8.07;4.70;;;;;;;;;;4992724;28;20034;-90
2023/06/12 13:31:16;;;;;;;6.30;4.45;;;;;;;;;;4978165;28;20123;-90
2023/06/12 13:33:42;;;;;;;5.28;4.07;;;;;;;;;;4976787;28;20572;-89
2023/06/12 13:36:08;;;;;;;7.68;4.35;;;;;;;;;;4992959;28;20014;-89
2023/06/12 13:38:34;;;;;;;6.07;4.00;;;;;;;;;;4995078;28;20022;-91
2023/06/12 13:41:01;;;;;;;6.72;4.47;;;;;;;;;;4976619;28;20053;-90
2023/06/12 13:43:29;;;;;;;5.78;4.43;;;;;;;;;;4974017;28;20108;-91
2023/06/12 13:45:57;;;;;;;9.63;4.57;;;;;;;;;;4992114;28;20585;-90
2023/06/12 13:48:23;;;;;;;6.55;4.55;;;;;;;;;;4973614;28;20026;-90
2023/06/12 13:50:49;;;;;;;6.82;4.93;;;;;;;;;;4979016;28;20015;-90
2023/06/12 13:53:16;;;;;;;5.03;4.38;;;;;;;;;;4991070;28;20109;-91
2023/06/12 13:55:42;;;;;;;12.48;5.07;;;;;;;;;;4980162;28;20045;-90
2023/06/12 13:58:08;;;;;;;7.35;4.68;;;;;;;;;;4982769;28;20027;-91
2023/06/12 14:00:34;;;;;;;5.28;4.78;;;;;;;;;;4978452;28;20030;-90
2023/06/12 14:03:00;;;;;;;5.32;4.82;;;;;;;;;;4989970;28;20029;-88
2023/06/12 14:05:26;;;;;;;5.47;4.60;;;;;;;;;;4978982;28;20105;-90
2023/06/12 14:07:52;;;;;;;6.28;4.75;;;;;;;;;;4995287;28;20035;-90
2023/06/12 14:10:18;;;;;;;5.63;4.97;;;;;;;;;;4980612;28;20113;-90
2023/06/12 14:12:44;;;;;;;5.57;4.22;;;;;;;;;;4976401;28;20022;-90
2023/06/12 14:15:10;;;;;;;8.77;4.40;;;;;;;;;;4968479;28;20027;-90
2023/06/12 14:17:37;;;;;;;9.88;5.00;;;;;;;;;;4972406;28;20038;-91
2023/06/12 14:20:05;;;;;;;6.82;4.63;;;;;;;;;;4975634;28;20046;-89
2023/06/12 14:22:31;;;;;;;5.30;4.80;;;;;;;;;;4992741;28;20026;-88
2023/06/12 14:24:57;;;;;;;8.48;5.07;;;;;;;;;;4978413;28;20149;-91
2023/06/12 14:27:24;;;;;;;5.38;4.57;;;;;;;;;;4991442;28;21846;-89
2023/06/12 14:29:50;;;;;;;6.70;4.80;;;;;;;;;;4972379;28;20026;-89
2023/06/12 14:32:16;;;;;;;6.30;5.03;;;;;;;;;;4978075;28;20027;-87
2023/06/12 14:34:42;;;;;;;6.30;4.55;;;;;;;;;;4992319;28;20026;-88
2023/06/12 14:37:08;;;;;;;7.05;4.70;;;;;;;;;;4970739;28;20018;-89
2023/06/12 14:39:34;;;;;;;5.28;4.28;;;;;;;;;;4973665;28;20036;-88
2023/06/12 14:42:00;;;;;;;6.25;4.88;;;;;;;;;;4974323;28;20124;-90
2023/06/12 14:44:28;;;;;;;5.60;4.65;;;;;;;;;;4972608;28;20096;-87